createdAt,value
2019-02-02T00:01:22.725Z,90.10
2019-02-02T00:03:52.753Z,90.10
2019-02-02T00:06:22.792Z,90.00
2019-02-02T00:08:52.844Z,90.10
2019-02-02T00:11:22.950Z,90.10
2019-02-02T00:13:54.104Z,90.00
2019-02-02T00:16:24.135Z,90.10
2019-02-02T00:18:54.199Z,90.00
2019-02-02T00:21:24.249Z,90.00
2019-02-02T00:23:55.294Z,90.00
2019-02-02T00:26:25.339Z,90.20
2019-02-02T00:28:55.398Z,90.10
2019-02-02T00:31:25.475Z,90.10
2019-02-02T00:33:55.534Z,90.10
2019-02-02T00:36:37.777Z,90.10
2019-02-02T00:39:09.287Z,90.10
2019-02-02T00:41:39.342Z,90.10
2019-02-02T00:44:09.399Z,90.20
2019-02-02T00:46:58.899Z,90.10
2019-02-02T00:49:28.954Z,90.50
2019-02-02T00:51:59.020Z,90.10
2019-02-02T00:54:29.084Z,90.10
2019-02-02T00:56:59.148Z,90.10
2019-02-02T00:59:29.200Z,90.10
2019-02-02T01:01:59.271Z,90.10
2019-02-02T01:04:29.322Z,90.10
2019-02-02T01:06:59.391Z,90.10
2019-02-02T01:09:29.736Z,90.00
2019-02-02T01:12:02.100Z,90.10
2019-02-02T01:14:32.156Z,90.10
2019-02-02T01:17:02.208Z,90.00
2019-02-02T01:19:32.265Z,90.00
2019-02-02T01:22:02.673Z,90.00
2019-02-02T01:24:32.737Z,90.00
2019-02-02T01:27:02.789Z,90.00
2019-02-02T01:29:32.857Z,90.00
2019-02-02T01:32:02.914Z,90.00
2019-02-02T01:34:32.968Z,90.00
2019-02-02T01:37:03.045Z,90.00
2019-02-02T01:39:33.105Z,90.00
2019-02-02T01:42:03.159Z,89.80
2019-02-02T01:44:33.207Z,90.00
2019-02-02T01:47:03.260Z,90.00
2019-02-02T01:49:45.439Z,90.00
2019-02-02T01:52:15.509Z,90.00
2019-02-02T01:54:45.559Z,90.00
2019-02-02T01:57:15.628Z,90.00
2019-02-02T01:59:45.683Z,90.00
2019-02-02T02:02:15.756Z,90.00
2019-02-02T02:04:45.813Z,90.00
2019-02-02T02:07:15.948Z,90.00
2019-02-02T02:09:46.975Z,90.00
2019-02-02T02:12:17.041Z,90.00
2019-02-02T02:14:47.105Z,90.00
2019-02-02T02:17:17.170Z,90.00
2019-02-02T02:19:47.225Z,89.80
2019-02-02T02:22:17.284Z,90.00
2019-02-02T02:24:47.348Z,90.00
2019-02-02T02:27:17.408Z,90.00
2019-02-02T02:29:47.459Z,90.00
2019-02-02T02:32:17.525Z,90.00
2019-02-02T02:34:48.006Z,90.00
2019-02-02T02:37:18.060Z,90.00
2019-02-02T02:39:48.125Z,90.00
2019-02-02T02:42:18.207Z,90.00
2019-02-02T02:44:48.370Z,90.00
2019-02-02T02:47:18.429Z,89.90
2019-02-02T02:49:48.501Z,90.00
2019-02-02T02:52:18.560Z,90.10
2019-02-02T02:54:48.626Z,90.10
2019-02-02T02:57:18.692Z,90.00
2019-02-02T02:59:48.781Z,90.10
2019-02-02T03:02:18.840Z,90.00
2019-02-02T03:05:01.625Z,90.00
2019-02-02T03:07:31.760Z,90.00
2019-02-02T03:10:01.819Z,90.00
2019-02-02T03:12:32.968Z,90.00
2019-02-02T03:15:04.203Z,90.00
2019-02-02T03:17:34.275Z,90.00
2019-02-02T03:20:07.085Z,90.00
2019-02-02T03:22:37.146Z,90.00
2019-02-02T03:25:16.832Z,90.00
2019-02-02T03:27:47.862Z,90.00
2019-02-02T03:30:22.230Z,90.00
2019-02-02T03:32:53.499Z,90.00
2019-02-02T03:35:24.470Z,90.00
2019-02-02T03:37:54.556Z,90.00
2019-02-02T03:40:24.682Z,90.00
2019-02-02T03:42:54.763Z,89.90
2019-02-02T03:45:25.088Z,90.00
2019-02-02T03:47:55.795Z,90.00
2019-02-02T03:50:25.864Z,90.00
2019-02-02T03:52:55.907Z,90.00
2019-02-02T03:55:25.968Z,89.90
2019-02-02T03:57:56.037Z,89.70
2019-02-02T04:00:26.088Z,89.70
2019-02-02T04:02:56.160Z,89.60
2019-02-02T04:05:30.180Z,89.80
2019-02-02T04:08:00.232Z,89.80
2019-02-02T04:10:30.284Z,89.80
2019-02-02T04:13:00.342Z,89.80
2019-02-02T04:15:30.395Z,89.70
2019-02-02T04:18:00.460Z,89.60
2019-02-02T04:20:30.554Z,89.80
2019-02-02T04:23:00.606Z,89.80
2019-02-02T04:25:30.656Z,89.70
2019-02-02T04:28:00.714Z,89.80
2019-02-02T04:30:30.842Z,89.70
2019-02-02T04:33:00.899Z,89.60
2019-02-02T04:35:30.957Z,89.50
2019-02-02T04:38:01.028Z,89.50
2019-02-02T04:40:31.088Z,89.40
2019-02-02T04:43:01.983Z,89.40
2019-02-02T04:45:32.081Z,89.40
2019-02-02T04:48:02.165Z,89.60
2019-02-02T04:50:33.541Z,89.60
2019-02-02T04:53:03.613Z,89.60
2019-02-02T04:55:33.661Z,89.60
2019-02-02T04:58:03.735Z,89.60
2019-02-02T05:00:33.857Z,89.60
2019-02-02T05:03:03.923Z,89.60
2019-02-02T05:05:33.972Z,89.70
2019-02-02T05:08:04.046Z,89.60
2019-02-02T05:10:34.102Z,89.60
2019-02-02T05:13:04.174Z,89.50
2019-02-02T05:15:34.223Z,89.50
2019-02-02T05:18:04.294Z,89.50
2019-02-02T05:20:34.358Z,89.50
2019-02-02T05:23:04.417Z,89.70
2019-02-02T05:25:34.468Z,89.80
2019-02-02T05:28:04.534Z,89.80
2019-02-02T05:30:35.657Z,89.80
2019-02-02T05:33:05.721Z,89.90
2019-02-02T05:35:35.771Z,89.80
2019-02-02T05:38:05.852Z,90.00
2019-02-02T05:40:35.908Z,89.90
2019-02-02T05:43:05.983Z,90.30
2019-02-02T05:45:36.031Z,90.00
2019-02-02T05:48:06.109Z,89.90
2019-02-02T05:50:36.166Z,90.00
2019-02-02T05:53:06.228Z,90.00
2019-02-02T05:55:36.283Z,90.00
2019-02-02T05:58:06.368Z,90.00
2019-02-02T06:00:44.064Z,90.00
2019-02-02T06:03:14.138Z,90.00
2019-02-02T06:05:45.148Z,90.00
2019-02-02T06:08:15.218Z,89.90
2019-02-02T06:10:45.281Z,90.00
2019-02-02T06:13:15.356Z,89.90
2019-02-02T06:15:45.419Z,90.30
2019-02-02T06:18:15.476Z,90.00
2019-02-02T06:20:45.533Z,89.90
2019-02-02T06:23:15.602Z,89.90
2019-02-02T06:25:45.669Z,90.00
2019-02-02T06:28:15.739Z,90.00
2019-02-02T06:30:45.795Z,90.00
2019-02-02T06:33:15.864Z,90.00
2019-02-02T06:35:45.912Z,90.00
2019-02-02T06:38:15.993Z,90.10
2019-02-02T06:40:46.038Z,90.00
2019-02-02T06:43:16.111Z,90.10
2019-02-02T06:45:46.165Z,90.00
2019-02-02T06:48:16.231Z,90.10
2019-02-02T06:50:46.395Z,90.00
2019-02-02T06:53:16.450Z,90.00
2019-02-02T06:55:46.504Z,90.00
2019-02-02T06:58:16.579Z,90.00
2019-02-02T07:00:46.625Z,90.00
2019-02-02T07:03:16.748Z,90.00
2019-02-02T07:06:06.209Z,89.60
2019-02-02T07:08:36.279Z,89.70
2019-02-02T07:11:06.328Z,89.70
2019-02-02T07:13:36.663Z,89.70
2019-02-02T07:16:07.784Z,89.60
2019-02-02T07:18:37.847Z,89.80
2019-02-02T07:21:08.054Z,89.70
2019-02-02T07:23:38.292Z,89.30
2019-02-02T07:26:08.350Z,89.20
2019-02-02T07:28:38.590Z,89.70
2019-02-02T07:31:08.640Z,89.20
2019-02-02T07:33:38.705Z,89.20
2019-02-02T07:36:08.766Z,89.60
2019-02-02T07:38:38.902Z,89.40
2019-02-02T07:41:08.953Z,89.40
2019-02-02T07:43:39.016Z,89.20
2019-02-02T07:46:15.080Z,89.30
2019-02-02T07:48:41.107Z,89.30
2019-02-02T07:51:11.180Z,89.40
2019-02-02T07:53:41.253Z,89.50
2019-02-02T07:56:11.317Z,89.50
2019-02-02T07:58:42.348Z,89.40
2019-02-02T08:01:12.474Z,89.50
2019-02-02T08:03:42.546Z,89.50
2019-02-02T08:06:13.583Z,89.40
2019-02-02T08:08:43.664Z,89.40
2019-02-02T08:11:13.727Z,89.40
2019-02-02T08:13:43.807Z,89.60
2019-02-02T08:16:13.868Z,89.60
2019-02-02T08:18:43.949Z,89.60
2019-02-02T08:21:13.991Z,89.60
2019-02-02T08:23:44.060Z,89.60
2019-02-02T08:26:14.166Z,89.60
2019-02-02T08:28:44.245Z,89.70
2019-02-02T08:31:14.303Z,89.60
2019-02-02T08:33:45.398Z,89.20
2019-02-02T08:36:15.518Z,89.40
2019-02-02T08:38:45.590Z,89.40
2019-02-02T08:41:15.649Z,89.60
2019-02-02T08:43:45.707Z,89.70
2019-02-02T08:46:15.758Z,89.60
2019-02-02T08:48:45.831Z,89.60
2019-02-02T08:51:15.890Z,89.50
2019-02-02T08:53:45.954Z,89.60
2019-02-02T08:56:16.022Z,89.60
2019-02-02T08:58:46.107Z,89.50
2019-02-02T09:01:16.164Z,89.40
2019-02-02T09:03:46.247Z,89.40
2019-02-02T09:06:16.305Z,89.40
2019-02-02T09:08:46.369Z,89.50
2019-02-02T09:11:16.420Z,89.30
2019-02-02T09:13:46.495Z,89.50
2019-02-02T09:16:16.546Z,88.90
2019-02-02T09:18:46.897Z,89.40
2019-02-02T09:21:16.965Z,89.50
2019-02-02T09:23:47.025Z,89.40
2019-02-02T09:26:17.084Z,89.30
2019-02-02T09:28:47.158Z,89.40
2019-02-02T09:31:17.218Z,89.40
2019-02-02T09:33:47.283Z,89.30
2019-02-02T09:36:17.330Z,89.40
2019-02-02T09:38:47.401Z,89.40
2019-02-02T09:41:17.448Z,89.40
2019-02-02T09:43:47.533Z,89.40
2019-02-02T09:46:17.588Z,89.30
2019-02-02T09:48:49.291Z,89.30
2019-02-02T09:51:19.358Z,89.30
2019-02-02T09:53:49.416Z,89.10
2019-02-02T09:56:19.485Z,89.10
2019-02-02T09:58:49.545Z,89.00
2019-02-02T10:01:27.379Z,89.30
2019-02-02T10:03:51.671Z,89.00
2019-02-02T10:06:21.711Z,89.10
2019-02-02T10:08:51.993Z,89.30
2019-02-02T10:11:22.044Z,89.50
2019-02-02T10:13:52.343Z,89.40
2019-02-02T10:16:22.464Z,89.60
2019-02-02T10:18:54.316Z,89.40
2019-02-02T10:21:24.269Z,89.60
2019-02-02T10:23:54.345Z,89.60
2019-02-02T10:26:24.408Z,89.70
2019-02-02T10:28:54.470Z,89.60
2019-02-02T10:31:24.529Z,89.60
2019-02-02T10:33:54.595Z,89.80
2019-02-02T10:36:25.720Z,89.60
2019-02-02T10:38:55.796Z,89.80
2019-02-02T10:41:25.845Z,89.70
2019-02-02T10:43:55.921Z,90.00
2019-02-02T10:46:25.980Z,89.70
2019-02-02T10:48:56.068Z,89.70
2019-02-02T10:51:26.120Z,89.20
2019-02-02T10:53:56.199Z,90.10
2019-02-02T10:56:26.239Z,89.60
2019-02-02T10:58:56.322Z,89.40
2019-02-02T11:01:26.396Z,89.30
2019-02-02T11:03:56.465Z,88.90
2019-02-02T11:06:27.715Z,89.00
2019-02-02T11:08:57.754Z,89.10
2019-02-02T11:11:28.057Z,88.90
2019-02-02T11:13:58.157Z,88.50
2019-02-02T11:16:28.251Z,88.80
2019-02-02T11:18:58.430Z,88.70
2019-02-02T11:21:28.492Z,88.70
2019-02-02T11:23:58.704Z,88.80
2019-02-02T11:26:28.774Z,88.50
2019-02-02T11:28:58.912Z,88.70
2019-02-02T11:31:28.989Z,89.00
2019-02-02T11:33:59.101Z,89.10
2019-02-02T11:36:29.160Z,89.30
2019-02-02T11:38:59.741Z,89.20
2019-02-02T11:41:29.861Z,89.30
2019-02-02T11:43:59.922Z,89.10
2019-02-02T11:46:29.984Z,88.90
2019-02-02T11:49:00.054Z,89.00
2019-02-02T11:51:30.100Z,88.60
2019-02-02T11:54:00.176Z,88.80
2019-02-02T11:56:30.222Z,88.10
2019-02-02T11:59:00.295Z,88.10
2019-02-02T12:01:30.359Z,87.90
2019-02-02T12:04:00.415Z,88.30
2019-02-02T12:06:30.462Z,88.40
2019-02-02T12:09:00.520Z,88.90
2019-02-02T12:11:30.571Z,88.40
2019-02-02T12:14:00.641Z,88.20
2019-02-02T12:16:30.695Z,88.50
2019-02-02T12:19:00.752Z,88.80
2019-02-02T12:21:30.805Z,88.90
2019-02-02T12:24:12.737Z,88.40
2019-02-02T12:26:32.615Z,88.00
2019-02-02T12:29:02.678Z,88.00
2019-02-02T12:31:32.751Z,88.30
2019-02-02T12:34:02.804Z,88.30
2019-02-02T12:36:32.889Z,88.50
2019-02-02T12:39:02.938Z,88.50
2019-02-02T12:41:34.268Z,88.60
2019-02-02T12:44:04.590Z,87.90
2019-02-02T12:46:34.665Z,87.80
2019-02-02T12:49:04.720Z,88.30
2019-02-02T12:51:34.782Z,88.30
2019-02-02T12:54:04.840Z,88.40
2019-02-02T12:56:34.913Z,87.80
2019-02-02T12:59:05.040Z,87.90
2019-02-02T13:01:35.109Z,87.80
2019-02-02T13:04:05.704Z,87.90
2019-02-02T13:06:35.796Z,87.50
2019-02-02T13:09:08.264Z,87.60
2019-02-02T13:11:38.327Z,87.30
2019-02-02T13:14:09.454Z,88.20
2019-02-02T13:16:39.586Z,87.70
2019-02-02T13:19:09.709Z,87.70
2019-02-02T13:21:39.713Z,88.30
2019-02-02T13:24:09.767Z,88.30
2019-02-02T13:26:39.837Z,87.90
2019-02-02T13:29:09.893Z,87.80
2019-02-02T13:31:39.949Z,88.10
2019-02-02T13:34:10.001Z,87.60
2019-02-02T13:36:40.631Z,87.00
2019-02-02T13:39:10.691Z,87.50
2019-02-02T13:41:40.770Z,87.20
2019-02-02T13:44:10.827Z,87.60
2019-02-02T13:46:40.900Z,87.20
2019-02-02T13:49:11.090Z,87.40
2019-02-02T13:51:41.142Z,87.70
2019-02-02T13:54:30.699Z,87.90
2019-02-02T13:57:00.759Z,87.90
2019-02-02T13:59:30.817Z,88.40
2019-02-02T14:02:00.890Z,88.30
2019-02-02T14:04:31.038Z,88.10
2019-02-02T14:07:01.124Z,87.90
2019-02-02T14:09:31.177Z,87.50
2019-02-02T14:12:02.920Z,88.00
2019-02-02T14:14:32.991Z,88.10
2019-02-02T14:17:03.059Z,88.20
2019-02-02T14:19:33.124Z,88.00
2019-02-02T14:22:03.176Z,88.00
2019-02-02T14:24:33.260Z,88.40
2019-02-02T14:27:03.314Z,88.00
2019-02-02T14:29:34.348Z,88.30
2019-02-02T14:32:04.430Z,88.20
2019-02-02T14:34:40.363Z,88.10
2019-02-02T14:37:06.243Z,88.50
2019-02-02T14:39:36.308Z,88.40
2019-02-02T14:42:06.375Z,88.40
2019-02-02T14:44:36.441Z,88.60
2019-02-02T14:47:06.513Z,88.00
2019-02-02T14:49:36.599Z,88.30
2019-02-02T14:52:06.675Z,88.30
2019-02-02T14:54:37.018Z,88.30
2019-02-02T14:57:07.091Z,88.00
2019-02-02T14:59:37.169Z,88.10
2019-02-02T15:02:07.235Z,88.20
2019-02-02T15:04:37.297Z,88.30
2019-02-02T15:07:07.362Z,88.50
2019-02-02T15:09:37.423Z,88.40
2019-02-02T15:12:07.491Z,88.10
2019-02-02T15:14:37.549Z,88.20
2019-02-02T15:17:07.608Z,88.00
2019-02-02T15:19:37.677Z,88.10
2019-02-02T15:22:07.775Z,88.40
2019-02-02T15:24:37.832Z,88.50
2019-02-02T15:27:07.909Z,88.60
2019-02-02T15:29:37.983Z,88.60
2019-02-02T15:32:08.048Z,88.70
2019-02-02T15:34:38.107Z,88.60
2019-02-02T15:37:08.201Z,88.80
2019-02-02T15:39:38.248Z,88.60
2019-02-02T15:42:08.343Z,88.60
2019-02-02T15:44:38.397Z,88.40
2019-02-02T15:47:08.467Z,88.50
2019-02-02T15:49:38.634Z,88.80
2019-02-02T15:52:08.703Z,88.60
2019-02-02T15:54:38.755Z,88.80
2019-02-02T15:57:08.821Z,88.80
2019-02-02T15:59:39.037Z,88.80
2019-02-02T16:02:09.078Z,88.80
2019-02-02T16:04:39.141Z,89.10
2019-02-02T16:07:09.205Z,88.90
2019-02-02T16:09:39.280Z,89.00
2019-02-02T16:12:09.342Z,89.10
2019-02-02T16:14:39.424Z,89.20
2019-02-02T16:17:09.483Z,89.30
2019-02-02T16:19:39.565Z,89.40
2019-02-02T16:22:09.644Z,89.20
2019-02-02T16:24:39.697Z,89.20
2019-02-02T16:27:10.574Z,89.30
2019-02-02T16:29:40.664Z,89.30
2019-02-02T16:32:10.707Z,89.40
2019-02-02T16:34:40.766Z,89.60
2019-02-02T16:37:10.843Z,89.40
2019-02-02T16:39:41.192Z,89.60
2019-02-02T16:42:11.267Z,89.60
2019-02-02T16:44:41.330Z,89.90
2019-02-02T16:47:11.397Z,90.00
2019-02-02T16:49:41.459Z,90.00
2019-02-02T16:52:11.535Z,90.00
2019-02-02T16:54:41.597Z,90.00
2019-02-02T16:57:11.941Z,90.00
2019-02-02T16:59:41.997Z,90.00
2019-02-02T17:02:13.400Z,90.10
2019-02-02T17:04:43.471Z,90.10
2019-02-02T17:07:13.530Z,90.10
2019-02-02T17:09:43.620Z,90.10
2019-02-02T17:12:13.686Z,90.10
2019-02-02T17:14:43.754Z,90.00
2019-02-02T17:17:13.807Z,90.10
2019-02-02T17:19:43.878Z,90.00
2019-02-02T17:22:13.934Z,90.10
2019-02-02T17:24:44.056Z,90.10
2019-02-02T17:27:14.153Z,90.00
2019-02-02T17:29:45.282Z,89.90
2019-02-02T17:32:15.342Z,89.90
2019-02-02T17:34:45.431Z,89.90
2019-02-02T17:37:16.100Z,89.90
2019-02-02T17:39:46.346Z,89.90
2019-02-02T17:42:16.403Z,90.00
2019-02-02T17:44:46.469Z,90.00
2019-02-02T17:47:16.631Z,90.00
2019-02-02T17:49:46.681Z,90.00
2019-02-02T17:52:16.737Z,90.00
2019-02-02T17:54:46.802Z,89.90
2019-02-02T17:57:16.861Z,89.90
2019-02-02T17:59:46.976Z,89.70
2019-02-02T18:02:17.045Z,89.40
2019-02-02T18:04:47.135Z,89.60
2019-02-02T18:07:17.185Z,89.60
2019-02-02T18:09:47.245Z,89.60
2019-02-02T18:12:17.324Z,89.50
2019-02-02T18:14:47.381Z,89.70
2019-02-02T18:17:17.465Z,89.70
2019-02-02T18:19:47.526Z,89.50
2019-02-02T18:22:17.594Z,89.60
2019-02-02T18:24:47.655Z,89.60
2019-02-02T18:27:17.723Z,89.50
2019-02-02T18:29:47.793Z,89.30
2019-02-02T18:32:17.898Z,89.20
2019-02-02T18:34:51.304Z,89.40
2019-02-02T18:37:19.770Z,89.50
2019-02-02T18:39:51.901Z,89.90
2019-02-02T18:42:21.974Z,89.80
2019-02-02T18:44:52.037Z,89.90
2019-02-02T18:47:22.120Z,89.90
2019-02-02T18:49:52.184Z,90.00
2019-02-02T18:52:22.254Z,90.10
2019-02-02T18:54:52.316Z,90.10
2019-02-02T18:57:22.371Z,90.10
2019-02-02T18:59:52.436Z,90.10
2019-02-02T19:02:22.484Z,90.10
2019-02-02T19:05:03.227Z,90.10
2019-02-02T19:07:25.394Z,90.20
2019-02-02T19:09:58.470Z,90.30
2019-02-02T19:12:28.497Z,90.30
2019-02-02T19:14:58.632Z,90.40
2019-02-02T19:17:29.054Z,90.30
2019-02-02T19:20:00.567Z,90.30
2019-02-02T19:22:30.849Z,90.30
2019-02-02T19:25:00.920Z,90.30
2019-02-02T19:27:30.976Z,90.20
2019-02-02T19:30:01.045Z,90.30
2019-02-02T19:32:31.121Z,90.30
2019-02-02T19:35:01.296Z,90.20
2019-02-02T19:37:31.351Z,90.20
2019-02-02T19:40:01.423Z,90.20
2019-02-02T19:42:31.536Z,90.20
2019-02-02T19:45:01.544Z,90.20
2019-02-02T19:47:34.500Z,90.20
2019-02-02T19:50:04.162Z,90.20
2019-02-02T19:52:34.213Z,90.20
2019-02-02T19:55:14.379Z,90.20
2019-02-02T19:57:36.959Z,90.10
2019-02-02T20:00:20.888Z,90.10
2019-02-02T20:02:51.034Z,90.20
2019-02-02T20:05:28.516Z,90.20
2019-02-02T20:07:52.974Z,90.10
2019-02-02T20:10:23.056Z,90.10
2019-02-02T20:12:53.126Z,90.50
2019-02-02T20:15:28.369Z,90.00
2019-02-02T20:18:09.407Z,90.00
2019-02-02T20:20:30.195Z,90.10
2019-02-02T20:23:00.262Z,90.10
2019-02-02T20:25:30.326Z,90.00
2019-02-02T20:28:02.037Z,90.10
2019-02-02T20:30:33.244Z,90.10
2019-02-02T20:33:03.312Z,90.00
2019-02-02T20:35:42.039Z,90.10
2019-02-02T20:38:05.201Z,90.10
2019-02-02T20:40:35.295Z,90.10
2019-02-02T20:43:05.449Z,90.10
2019-02-02T20:45:56.703Z,90.10
2019-02-02T20:48:26.760Z,90.20
2019-02-02T20:50:56.834Z,90.20
2019-02-02T20:53:26.900Z,90.30
2019-02-02T20:55:56.970Z,90.30
2019-02-02T20:58:28.102Z,90.40
2019-02-02T21:00:58.185Z,90.50
2019-02-02T21:03:28.257Z,90.40
2019-02-02T21:05:58.601Z,90.50
2019-02-02T21:08:28.664Z,90.30
2019-02-02T21:10:58.720Z,90.50
2019-02-02T21:13:28.788Z,90.40
2019-02-02T21:16:00.502Z,90.70
2019-02-02T21:18:30.734Z,90.40
2019-02-02T21:21:00.791Z,90.50
2019-02-02T21:23:30.869Z,90.50
2019-02-02T21:26:01.628Z,90.50
2019-02-02T21:28:31.960Z,90.50
2019-02-02T21:31:02.028Z,90.60
2019-02-02T21:33:44.084Z,90.60
2019-02-02T21:36:14.148Z,90.60
2019-02-02T21:38:44.205Z,90.60
2019-02-02T21:41:14.283Z,90.60
2019-02-02T21:44:03.945Z,90.60
2019-02-02T21:46:34.001Z,90.50
2019-02-02T21:49:04.338Z,90.50
2019-02-02T21:51:34.560Z,90.50
2019-02-02T21:54:04.696Z,90.50
2019-02-02T21:56:34.744Z,90.50
2019-02-02T21:59:04.802Z,90.60
2019-02-02T22:01:35.156Z,90.50
2019-02-02T22:04:05.351Z,90.50
2019-02-02T22:06:35.429Z,90.50
2019-02-02T22:09:07.829Z,90.50
2019-02-02T22:11:37.891Z,90.50
2019-02-02T22:14:08.320Z,90.50
2019-02-02T22:16:38.377Z,90.50
2019-02-02T22:19:08.445Z,90.50
2019-02-02T22:21:38.502Z,90.50
2019-02-02T22:24:08.563Z,90.50
2019-02-02T22:26:39.057Z,90.50
2019-02-02T22:29:09.116Z,90.50
2019-02-02T22:31:39.201Z,90.80
2019-02-02T22:34:09.266Z,90.40
2019-02-02T22:36:39.357Z,90.70
2019-02-02T22:39:09.590Z,90.60
2019-02-02T22:41:39.656Z,90.70
2019-02-02T22:44:09.715Z,90.70
2019-02-02T22:46:53.099Z,90.70
2019-02-02T22:49:23.531Z,90.60
2019-02-02T22:51:53.601Z,90.60
2019-02-02T22:54:23.656Z,90.50
2019-02-02T22:56:53.757Z,90.30
2019-02-02T22:59:23.804Z,90.30
2019-02-02T23:01:54.013Z,90.40
2019-02-02T23:04:28.962Z,90.40
2019-02-02T23:07:03.976Z,90.50
2019-02-02T23:10:34.410Z,90.50
2019-02-02T23:13:42.117Z,90.40
2019-02-02T23:16:48.017Z,90.10
2019-02-02T23:19:18.098Z,90.00
2019-02-02T23:21:48.154Z,90.10
2019-02-02T23:24:18.225Z,90.10
2019-02-02T23:26:48.278Z,90.00
2019-02-02T23:29:18.357Z,89.90
2019-02-02T23:31:48.409Z,90.00
2019-02-02T23:34:18.483Z,89.90
2019-02-02T23:36:51.695Z,89.90
2019-02-02T23:39:20.297Z,90.00
2019-02-02T23:41:50.354Z,90.00
2019-02-02T23:44:20.422Z,90.00
2019-02-02T23:46:50.472Z,89.80
2019-02-02T23:49:20.541Z,89.90
2019-02-02T23:51:50.598Z,89.90
2019-02-02T23:54:20.681Z,90.00
2019-02-02T23:56:50.746Z,90.00
2019-02-02T23:59:20.813Z,89.80
